Time;durP1;ratioP1;P1;durP2;ratioP2;P2;SDS_P1;SDS_P2;PMS_P1;PMS_P2;Temp;Humidity;BMP_temperature;BMP_pressure;BME280_temperature;BME280_humidity;BME280_pressure;Samples;Min_cycle;Max_cycle;Signal;HPM_P1;HPM_P2
2022/12/05 00:02:12;;;;;;;8.30;4.67;;;7.20;96.40;;;;;;6211843;23;20568;-81
2022/12/05 00:04:42;;;;;;;8.33;5.00;;;7.20;96.50;;;;;;6214111;23;20175;-79
2022/12/05 00:07:11;;;;;;;8.23;4.67;;;7.20;96.50;;;;;;6212272;23;20159;-81
2022/12/05 00:09:39;;;;;;;8.70;4.73;;;7.10;96.50;;;;;;6210853;23;20175;-80
2022/12/05 00:12:08;;;;;;;9.03;4.70;;;7.10;96.50;;;;;;6210514;23;20175;-79
2022/12/05 00:14:37;;;;;;;7.13;4.73;;;7.10;96.50;;;;;;6213568;23;20187;-81
2022/12/05 00:17:06;;;;;;;8.17;4.67;;;7.10;96.90;;;;;;6213709;23;20640;-81
2022/12/05 00:19:37;;;;;;;12.90;5.57;;;7.20;96.50;;;;;;6211760;23;20195;-80
2022/12/05 00:22:05;;;;;;;7.53;4.57;;;7.20;96.50;;;;;;6213953;23;20190;-79
2022/12/05 00:24:35;;;;;;;6.77;4.13;;;7.20;96.40;;;;;;6210625;23;20903;-80
2022/12/05 00:27:04;;;;;;;9.37;4.57;;;7.20;96.40;;;;;;6209596;23;20190;-81
2022/12/05 00:29:32;;;;;;;6.80;4.33;;;7.20;96.40;;;;;;6213799;23;20181;-80
2022/12/05 00:32:01;;;;;;;9.73;4.20;;;7.20;96.30;;;;;;6213622;23;20254;-80
2022/12/05 00:34:30;;;;;;;6.97;4.00;;;7.20;96.30;;;;;;6211503;23;20632;-79
2022/12/05 00:36:58;;;;;;;7.70;4.00;;;7.20;96.30;;;;;;6212136;23;20558;-79
2022/12/05 00:39:27;;;;;;;6.80;4.30;;;7.20;96.20;;;;;;6213006;23;20195;-80
2022/12/05 00:41:55;;;;;;;7.80;4.20;;;7.20;96.20;;;;;;6212275;23;20178;-80
2022/12/05 00:44:23;;;;;;;7.77;4.43;;;7.20;96.20;;;;;;6213207;23;20541;-78
2022/12/05 00:46:51;;;;;;;7.67;4.17;;;7.20;96.20;;;;;;6212663;23;20186;-80
2022/12/05 00:49:21;;;;;;;7.63;4.77;;;7.20;96.20;;;;;;6211962;23;20703;-79
2022/12/05 00:51:49;;;;;;;10.35;5.60;;;7.20;96.30;;;;;;6213826;23;20387;-81
2022/12/05 00:54:18;;;;;;;9.20;5.57;;;7.20;96.50;;;;;;6213221;23;20503;-81
2022/12/05 00:56:46;;;;;;;7.40;4.40;;;7.10;96.50;;;;;;6213013;23;20528;-80
2022/12/05 00:59:17;;;;;;;7.17;4.97;;;7.10;96.50;;;;;;6211409;23;20214;-80
2022/12/05 01:01:47;;;;;;;10.27;5.10;;;7.10;96.50;;;;;;6212065;23;20209;-80
2022/12/05 01:04:19;;;;;;;12.43;5.10;;;7.10;96.40;;;;;;6212704;23;20675;-81
2022/12/05 01:06:49;;;;;;;9.53;5.50;;;7.10;96.40;;;;;;6212637;23;20160;-82
2022/12/05 01:09:19;;;;;;;10.03;5.63;;;7.10;96.30;;;;;;6212726;23;20181;-82
2022/12/05 01:11:48;;;;;;;13.07;6.27;;;7.00;96.30;;;;;;6212543;23;20182;-79
2022/12/05 01:14:19;;;;;;;14.77;6.30;;;7.00;96.30;;;;;;6211725;23;20178;-79
2022/12/05 01:16:49;;;;;;;12.30;5.97;;;7.00;96.30;;;;;;6214241;23;20162;-80
2022/12/05 01:19:20;;;;;;;9.50;5.20;;;7.00;96.30;;;;;;6210012;23;20575;-81
2022/12/05 01:21:50;;;;;;;10.10;5.23;;;7.00;96.30;;;;;;6215028;23;20161;-81
2022/12/05 01:24:24;;;;;;;10.33;5.37;;;6.90;96.30;;;;;;6211543;23;20486;-80
2022/12/05 01:26:54;;;;;;;11.33;6.17;;;7.00;96.30;;;;;;6212494;23;20236;-81
2022/12/05 01:29:23;;;;;;;11.53;5.93;;;6.90;96.30;;;;;;6210460;23;20534;-78
2022/12/05 01:31:52;;;;;;;11.57;6.53;;;6.90;96.30;;;;;;6213480;23;20189;-80
2022/12/05 01:34:21;;;;;;;11.80;6.50;;;6.90;96.30;;;;;;6206379;23;20538;-80
2022/12/05 01:36:51;;;;;;;10.17;6.30;;;6.90;96.20;;;;;;6210500;23;20178;-79
2022/12/05 01:39:19;;;;;;;13.27;6.53;;;6.90;96.20;;;;;;6213399;23;20719;-80
2022/12/05 01:41:49;;;;;;;23.50;7.73;;;6.90;96.10;;;;;;6211945;23;20245;-80
2022/12/05 01:44:55;;;;;;;13.40;6.10;;;6.90;96.10;;;;;;6212229;23;20177;-78
2022/12/05 01:47:27;;;;;;;10.80;5.93;;;6.90;96.20;;;;;;6213043;23;20237;-80
2022/12/05 01:49:56;;;;;;;11.77;6.87;;;6.90;96.20;;;;;;6211609;23;20220;-80
2022/12/05 01:52:29;;;;;;;11.37;7.00;;;6.80;96.20;;;;;;6212417;23;21073;-80
2022/12/05 01:55:02;;;;;;;11.87;6.53;;;6.80;96.10;;;;;;6213893;23;20165;-81
2022/12/05 01:57:32;;;;;;;12.93;6.60;;;6.80;96.10;;;;;;6212362;23;20163;-81
2022/12/05 02:00:06;;;;;;;13.13;6.70;;;6.90;96.20;;;;;;6209273;23;20232;-82
2022/12/05 02:02:37;;;;;;;11.60;6.67;;;6.90;96.10;;;;;;6212459;23;20182;-81
2022/12/05 02:05:11;;;;;;;11.53;6.50;;;6.90;96.10;;;;;;6209826;23;20165;-82
2022/12/05 02:07:42;;;;;;;12.97;7.17;;;6.90;96.00;;;;;;6212620;23;20593;-81
2022/12/05 02:10:11;;;;;;;10.97;6.17;;;6.90;96.00;;;;;;6212290;23;20155;-79
2022/12/05 02:12:39;;;;;;;11.23;6.33;;;6.90;96.00;;;;;;6211784;23;20224;-82
2022/12/05 02:15:28;;;;;;;12.17;6.60;;;6.80;95.80;;;;;;6213041;23;20175;-81
2022/12/05 02:18:08;;;;;;;12.27;5.77;;;6.70;95.80;;;;;;6211097;23;20161;-80
2022/12/05 02:20:47;;;;;;;12.20;6.37;;;6.70;95.90;;;;;;6213217;23;20236;-81
2022/12/05 02:23:50;;;;;;;11.83;7.30;;;6.70;95.90;;;;;;6210535;23;20162;-80
2022/12/05 02:26:41;;;;;;;12.07;6.43;;;6.70;96.00;;;;;;6205686;23;20737;-82
2022/12/05 02:29:51;;;;;;;11.50;6.43;;;6.60;96.00;;;;;;6211890;23;20161;-81
2022/12/05 02:32:32;;;;;;;11.20;6.93;;;6.60;96.00;;;;;;6209087;23;20946;-82
2022/12/05 02:35:08;;;;;;;11.73;7.00;;;6.50;96.00;;;;;;6213699;23;20158;-82
2022/12/05 02:37:43;;;;;;;13.13;7.00;;;6.40;96.20;;;;;;6209653;23;20169;-82
2022/12/05 02:40:17;;;;;;;12.30;7.07;;;6.40;96.40;;;;;;6209329;23;20228;-81
2022/12/05 02:42:53;;;;;;;12.37;6.47;;;6.40;96.30;;;;;;6210025;23;20162;-81
2022/12/05 02:45:24;;;;;;;12.83;7.10;;;6.40;96.40;;;;;;6214180;23;20540;-83
2022/12/05 02:47:55;;;;;;;14.02;8.45;;;6.40;96.40;;;;;;6210086;23;20482;-79
2022/12/05 02:50:28;;;;;;;15.40;7.10;;;6.40;96.60;;;;;;6210133;23;20158;-82
2022/12/05 02:53:00;;;;;;;11.07;6.57;;;6.30;96.60;;;;;;6211653;23;20240;-80
2022/12/05 02:55:30;;;;;;;13.13;7.20;;;6.30;96.60;;;;;;6211831;23;20163;-80
2022/12/05 02:58:03;;;;;;;15.50;7.50;;;6.40;96.60;;;;;;6213093;23;20173;-81
2022/12/05 03:00:31;;;;;;;12.87;6.77;;;6.40;96.50;;;;;;6210906;23;20183;-80
2022/12/05 03:03:01;;;;;;;13.43;6.63;;;6.40;96.50;;;;;;6211732;23;20177;-83
2022/12/05 03:05:40;;;;;;;12.17;6.90;;;6.40;96.60;;;;;;6213262;23;20509;-81
2022/12/05 03:08:11;;;;;;;14.27;7.50;;;6.30;96.50;;;;;;6212529;23;20674;-81
2022/12/05 03:10:44;;;;;;;14.90;7.20;;;6.40;96.50;;;;;;6212200;23;20161;-82
2022/12/05 03:13:18;;;;;;;16.67;7.10;;;6.40;96.50;;;;;;6211905;23;20513;-81
2022/12/05 03:15:48;;;;;;;13.23;7.40;;;6.40;96.50;;;;;;6210799;23;20162;-83
2022/12/05 03:18:23;;;;;;;12.17;6.53;;;6.40;96.50;;;;;;6211718;23;20166;-82
2022/12/05 03:20:57;;;;;;;14.37;7.40;;;6.40;96.40;;;;;;6213280;23;20590;-82
2022/12/05 03:23:30;;;;;;;12.90;6.87;;;6.30;96.30;;;;;;6213161;23;20156;-82
2022/12/05 03:26:11;;;;;;;16.83;7.63;;;6.30;96.30;;;;;;6211462;23;20741;-80
2022/12/05 03:28:50;;;;;;;16.33;7.73;;;6.30;96.40;;;;;;6214038;23;20179;-83
2022/12/05 03:31:24;;;;;;;16.30;7.47;;;6.30;96.40;;;;;;6212396;23;20158;-81
2022/12/05 03:33:59;;;;;;;13.27;7.17;;;6.20;96.70;;;;;;6210121;23;20170;-81
2022/12/05 03:36:35;;;;;;;16.30;7.17;;;6.20;96.40;;;;;;6208589;23;20665;-81
2022/12/05 03:39:09;;;;;;;11.80;7.07;;;6.20;96.50;;;;;;6211591;23;20606;-81
2022/12/05 03:41:41;;;;;;;14.77;7.37;;;6.20;96.50;;;;;;6211794;23;20176;-82
2022/12/05 03:44:14;;;;;;;14.20;7.93;;;6.20;96.60;;;;;;6213249;23;20176;-82
2022/12/05 03:46:47;;;;;;;13.13;7.63;;;6.20;96.60;;;;;;6208995;23;20164;-82
2022/12/05 03:49:23;;;;;;;12.87;6.90;;;6.20;96.60;;;;;;6209602;23;20441;-82
2022/12/05 03:52:08;;;;;;;11.00;6.23;;;6.20;96.50;;;;;;6214548;23;20157;-82
2022/12/05 03:54:40;;;;;;;10.80;6.47;;;6.20;96.60;;;;;;6213457;23;20191;-82
2022/12/05 03:57:12;;;;;;;13.67;6.67;;;6.20;96.60;;;;;;6214818;23;20505;-82
2022/12/05 03:59:45;;;;;;;13.07;7.60;;;6.20;96.60;;;;;;6211558;23;20533;-83
2022/12/05 04:02:19;;;;;;;13.27;7.33;;;6.30;96.50;;;;;;6212572;23;20156;-81
2022/12/05 04:04:53;;;;;;;13.70;6.80;;;6.30;96.50;;;;;;6214442;23;20173;-82
2022/12/05 04:07:23;;;;;;;15.03;8.40;;;6.40;96.60;;;;;;6213478;23;20168;-81
2022/12/05 04:09:57;;;;;;;13.40;7.30;;;6.40;96.60;;;;;;6210698;23;20612;-81
2022/12/05 04:12:29;;;;;;;13.70;7.10;;;6.40;96.50;;;;;;6214068;23;20198;-82
2022/12/05 04:15:00;;;;;;;15.93;7.00;;;6.40;96.40;;;;;;6212091;23;20255;-83
2022/12/05 04:17:33;;;;;;;13.87;7.37;;;6.40;96.40;;;;;;6212131;23;20458;-80
2022/12/05 04:22:55;;;;;;;13.83;6.77;;;6.40;96.30;;;;;;6117875;23;20501;-82
2022/12/05 04:25:35;;;;;;;11.00;6.30;;;6.50;96.20;;;;;;6212398;23;20212;-81
2022/12/05 04:28:19;;;;;;;11.33;6.50;;;6.40;96.10;;;;;;6210444;23;20166;-80
2022/12/05 04:30:52;;;;;;;12.13;6.63;;;6.40;96.10;;;;;;6213619;23;20189;-83
2022/12/05 04:33:29;;;;;;;11.17;6.43;;;6.50;96.10;;;;;;6213562;23;20944;-82
2022/12/05 04:36:05;;;;;;;12.90;7.13;;;6.50;96.10;;;;;;6210993;23;20161;-81
2022/12/05 04:38:42;;;;;;;12.17;6.17;;;6.50;96.00;;;;;;6210267;23;20621;-80
2022/12/05 04:41:16;;;;;;;12.60;5.70;;;6.50;96.00;;;;;;6213862;23;20178;-82
2022/12/05 04:43:47;;;;;;;9.77;6.40;;;6.40;95.90;;;;;;6213564;23;20508;-81
2022/12/05 04:46:18;;;;;;;13.00;6.90;;;6.40;95.90;;;;;;6211052;23;20604;-81
2022/12/05 04:48:51;;;;;;;12.33;7.57;;;6.40;95.90;;;;;;6212073;23;20213;-80
2022/12/05 04:51:24;;;;;;;10.87;6.53;;;6.40;95.90;;;;;;6212944;23;20598;-80
2022/12/05 04:54:02;;;;;;;15.67;7.00;;;6.40;95.80;;;;;;6213756;23;20248;-80
2022/12/05 04:56:34;;;;;;;14.83;6.63;;;6.30;95.80;;;;;;6213034;23;20157;-78
2022/12/05 04:59:05;;;;;;;10.97;6.20;;;6.20;95.70;;;;;;6212584;23;20160;-80
2022/12/05 05:01:39;;;;;;;9.97;5.77;;;6.20;95.90;;;;;;6212236;23;20193;-82
2022/12/05 05:04:10;;;;;;;14.37;6.63;;;6.10;95.90;;;;;;6214168;23;20207;-83
2022/12/05 05:06:41;;;;;;;12.17;6.43;;;6.10;95.90;;;;;;6212570;23;20174;-81
2022/12/05 05:09:10;;;;;;;11.37;6.07;;;6.10;95.90;;;;;;6212352;23;20159;-82
2022/12/05 05:11:39;;;;;;;12.50;6.73;;;6.10;96.00;;;;;;6212203;23;20505;-80
2022/12/05 05:14:07;;;;;;;11.83;6.40;;;6.10;96.00;;;;;;6211972;23;20239;-81
2022/12/05 05:16:37;;;;;;;13.37;6.90;;;6.10;96.10;;;;;;6210500;23;20234;-81
2022/12/05 05:19:06;;;;;;;14.07;7.80;;;6.10;96.10;;;;;;6209093;23;20176;-82
2022/12/05 05:21:37;;;;;;;12.63;6.10;;;6.10;96.00;;;;;;6212367;23;20252;-82
2022/12/05 05:24:08;;;;;;;13.27;6.80;;;6.00;96.00;;;;;;6209991;23;20157;-81
2022/12/05 05:26:39;;;;;;;14.13;7.73;;;6.00;96.10;;;;;;6209791;23;20251;-81
2022/12/05 05:29:08;;;;;;;12.67;7.03;;;6.00;96.10;;;;;;6209997;23;20191;-81
2022/12/05 05:31:37;;;;;;;15.70;6.97;;;6.10;96.10;;;;;;6212052;23;20224;-82
2022/12/05 05:34:07;;;;;;;13.57;8.03;;;6.10;96.10;;;;;;6214027;23;20176;-82
2022/12/05 05:36:38;;;;;;;14.00;8.13;;;6.00;96.10;;;;;;6211107;23;20157;-82
2022/12/05 05:39:13;;;;;;;16.17;7.77;;;5.90;96.00;;;;;;6211047;23;20177;-82
2022/12/05 05:41:43;;;;;;;17.37;7.90;;;6.00;96.10;;;;;;6215029;23;20236;-81
2022/12/05 05:44:11;;;;;;;12.97;6.80;;;6.00;96.10;;;;;;6206507;23;20249;-79
2022/12/05 05:46:39;;;;;;;13.13;7.47;;;6.00;96.10;;;;;;6209280;23;20693;-81
2022/12/05 05:49:08;;;;;;;15.87;7.80;;;6.00;96.10;;;;;;6211638;23;20177;-81
2022/12/05 05:51:36;;;;;;;14.87;7.23;;;6.00;96.10;;;;;;6211613;23;20183;-81
2022/12/05 05:54:04;;;;;;;14.33;7.27;;;6.00;96.10;;;;;;6213808;23;20182;-81
2022/12/05 05:56:35;;;;;;;14.07;7.23;;;6.10;96.10;;;;;;6213172;23;20558;-80
2022/12/05 05:59:04;;;;;;;14.53;7.00;;;6.10;96.10;;;;;;6209585;23;20185;-81
2022/12/05 06:01:32;;;;;;;12.40;7.03;;;6.00;96.00;;;;;;6209265;23;20190;-82
2022/12/05 06:04:00;;;;;;;12.20;7.20;;;6.00;96.00;;;;;;6211479;23;20627;-81
2022/12/05 06:06:29;;;;;;;14.60;7.40;;;6.00;95.90;;;;;;6211350;23;20276;-79
2022/12/05 06:08:57;;;;;;;14.77;6.73;;;6.00;96.10;;;;;;6212512;23;20177;-82
2022/12/05 06:11:28;;;;;;;12.37;6.67;;;5.90;96.10;;;;;;6212730;23;20535;-80
2022/12/05 06:14:00;;;;;;;11.67;6.30;;;5.90;96.10;;;;;;6211410;23;20496;-81
2022/12/05 06:16:30;;;;;;;15.07;7.53;;;5.90;96.20;;;;;;6208626;23;20150;-82
2022/12/05 06:18:59;;;;;;;11.57;6.17;;;5.90;96.20;;;;;;6210718;23;20181;-80
2022/12/05 06:21:27;;;;;;;11.83;6.97;;;5.90;96.20;;;;;;6206264;23;20193;-79
2022/12/05 06:23:56;;;;;;;21.27;7.97;;;5.90;96.20;;;;;;6210870;23;20504;-81
2022/12/05 06:26:24;;;;;;;12.17;6.73;;;5.80;96.30;;;;;;6208550;23;20204;-81
2022/12/05 06:28:53;;;;;;;15.27;7.57;;;5.90;96.30;;;;;;6212580;23;20638;-80
2022/12/05 06:31:27;;;;;;;13.67;6.93;;;6.00;96.40;;;;;;6212462;23;20174;-81
2022/12/05 06:33:55;;;;;;;17.57;8.13;;;6.00;96.40;;;;;;6210395;23;20638;-79
2022/12/05 06:36:24;;;;;;;14.63;7.27;;;5.90;96.40;;;;;;6206772;23;20513;-79
2022/12/05 06:38:52;;;;;;;16.60;8.93;;;5.90;96.50;;;;;;6211294;23;20186;-78
2022/12/05 06:41:23;;;;;;;13.60;7.27;;;6.00;96.50;;;;;;6213646;23;20176;-78
2022/12/05 06:43:53;;;;;;;15.37;7.83;;;6.00;96.60;;;;;;6211988;23;20161;-80
2022/12/05 06:46:30;;;;;;;14.20;7.57;;;6.10;96.50;;;;;;6212987;23;20163;-80
2022/12/05 06:48:59;;;;;;;13.77;7.73;;;6.10;96.50;;;;;;6211124;23;20178;-81
2022/12/05 06:51:27;;;;;;;13.73;6.73;;;6.10;96.40;;;;;;6214061;23;20177;-80
2022/12/05 06:53:56;;;;;;;15.13;6.73;;;6.10;96.80;;;;;;6211995;23;20669;-79
2022/12/05 06:56:24;;;;;;;10.87;6.23;;;6.20;96.40;;;;;;6211245;23;20183;-81
2022/12/05 06:58:54;;;;;;;11.27;6.37;;;6.30;96.40;;;;;;6211391;23;20209;-81
2022/12/05 07:01:38;;;;;;;14.43;7.95;;;6.30;96.40;;;;;;6210847;23;20407;-81
2022/12/05 07:04:12;;;;;;;13.60;6.40;;;6.40;96.50;;;;;;6214251;23;20158;-81
2022/12/05 07:06:42;;;;;;;11.37;6.50;;;6.50;96.50;;;;;;6211299;23;20657;-80
2022/12/05 07:09:18;;;;;;;11.80;6.90;;;6.50;96.40;;;;;;6209883;23;20160;-82
2022/12/05 07:11:48;;;;;;;15.83;7.50;;;6.60;96.20;;;;;;6212435;23;20245;-82
2022/12/05 07:14:16;;;;;;;11.43;6.60;;;6.50;95.90;;;;;;6208606;23;20186;-82
2022/12/05 07:17:05;;;;;;;14.60;6.70;;;6.50;96.00;;;;;;6209101;23;20648;-80
2022/12/05 07:19:34;;;;;;;12.83;6.47;;;6.60;96.00;;;;;;6212157;23;20624;-80
2022/12/05 07:22:03;;;;;;;11.33;7.00;;;6.60;96.00;;;;;;6216139;23;20253;-81
2022/12/05 07:24:31;;;;;;;12.70;6.20;;;6.60;95.90;;;;;;6217029;23;20174;-82
2022/12/05 07:26:59;;;;;;;10.90;6.43;;;6.60;96.10;;;;;;6211160;23;20182;-80
2022/12/05 07:29:30;;;;;;;11.03;7.03;;;6.70;95.70;;;;;;6210163;23;20227;-83
2022/12/05 07:31:59;;;;;;;10.70;6.37;;;6.70;95.70;;;;;;6214921;23;20158;-84
2022/12/05 07:34:28;;;;;;;10.33;6.20;;;6.70;95.50;;;;;;6213697;23;20249;-81
2022/12/05 07:36:57;;;;;;;11.70;6.67;;;6.70;95.60;;;;;;6214393;23;20186;-83
2022/12/05 07:39:26;;;;;;;9.55;5.93;;;6.80;95.70;;;;;;6211106;23;20395;-83
2022/12/05 07:41:54;;;;;;;14.20;6.33;;;6.80;95.60;;;;;;6211972;23;20190;-82
2022/12/05 07:44:23;;;;;;;13.47;6.13;;;6.80;95.60;;;;;;6213252;23;20519;-83
2022/12/05 07:46:51;;;;;;;11.90;6.30;;;6.80;95.50;;;;;;6212278;23;20170;-83
2022/12/05 07:49:19;;;;;;;12.47;6.20;;;6.90;95.60;;;;;;6212811;23;20233;-83
2022/12/05 07:51:47;;;;;;;12.70;6.70;;;7.00;95.60;;;;;;6214393;23;20513;-85
2022/12/05 07:54:17;;;;;;;18.10;6.97;;;7.00;95.50;;;;;;6213569;23;20245;-83
2022/12/05 07:56:46;;;;;;;13.93;6.20;;;7.00;95.40;;;;;;6212873;23;20186;-81
2022/12/05 07:59:15;;;;;;;11.27;6.80;;;7.00;95.30;;;;;;6213652;23;20249;-83
2022/12/05 08:01:44;;;;;;;11.10;6.57;;;7.00;95.20;;;;;;6210991;23;20171;-79
2022/12/05 08:04:12;;;;;;;12.47;6.67;;;7.00;95.20;;;;;;6209499;23;20297;-81
2022/12/05 08:11:34;;;;;;;12.10;7.13;;;7.20;95.50;;;;;;6066259;23;20607;-78
2022/12/05 08:14:04;;;;;;;12.83;6.63;;;7.20;95.30;;;;;;6024226;23;20707;-75
2022/12/05 08:16:33;;;;;;;12.27;6.77;;;7.20;95.20;;;;;;6133752;23;20553;-74
2022/12/05 08:19:03;;;;;;;11.97;7.10;;;7.10;94.90;;;;;;6150810;23;20263;-75
2022/12/05 08:21:33;;;;;;;11.60;6.57;;;7.20;95.00;;;;;;6152121;23;20642;-76
2022/12/05 08:24:04;;;;;;;10.73;6.70;;;7.20;95.00;;;;;;6150848;23;20195;-76
2022/12/05 08:26:35;;;;;;;13.70;7.60;;;7.20;95.00;;;;;;6152424;23;20662;-75
2022/12/05 08:29:06;;;;;;;10.73;6.50;;;7.20;95.10;;;;;;6151103;23;20181;-76
2022/12/05 08:31:40;;;;;;;14.80;6.57;;;7.30;95.20;;;;;;6152889;23;20688;-77
2022/12/05 08:34:12;;;;;;;13.07;6.63;;;7.20;95.10;;;;;;6149196;23;20258;-75
2022/12/05 08:36:41;;;;;;;14.30;6.77;;;7.20;94.90;;;;;;6148650;23;20161;-75
2022/12/05 08:39:14;;;;;;;10.37;6.30;;;7.30;95.00;;;;;;6149459;23;20180;-74
2022/12/05 08:41:45;;;;;;;13.47;7.20;;;7.30;95.10;;;;;;6150176;23;20648;-75
2022/12/05 08:44:15;;;;;;;11.93;6.80;;;7.30;95.10;;;;;;6158109;23;20637;-74
2022/12/05 08:46:45;;;;;;;11.37;6.33;;;7.40;95.20;;;;;;6214160;23;20166;-76
2022/12/05 08:49:14;;;;;;;9.27;5.43;;;7.40;95.20;;;;;;6211923;23;20171;-75
2022/12/05 08:51:43;;;;;;;11.47;6.33;;;7.50;95.20;;;;;;6213357;23;20200;-74
2022/12/05 08:54:11;;;;;;;15.50;6.00;;;7.50;95.20;;;;;;6213619;23;20178;-76
2022/12/05 08:56:40;;;;;;;12.30;5.90;;;7.50;95.20;;;;;;6213081;23;20171;-76
2022/12/05 08:59:09;;;;;;;10.03;5.57;;;7.50;95.10;;;;;;6213264;23;20705;-75
2022/12/05 09:01:39;;;;;;;9.73;5.63;;;7.50;95.00;;;;;;6213134;23;20192;-76
2022/12/05 09:04:08;;;;;;;10.60;5.87;;;7.50;94.90;;;;;;6211623;23;20209;-75
2022/12/05 09:06:38;;;;;;;10.27;5.73;;;7.50;94.90;;;;;;6211668;23;20229;-76
2022/12/05 09:09:10;;;;;;;11.37;6.03;;;7.50;95.00;;;;;;6215250;23;20182;-75
2022/12/05 09:11:44;;;;;;;10.33;5.97;;;7.60;95.20;;;;;;6211973;23;20159;-75
2022/12/05 09:14:15;;;;;;;11.67;5.50;;;7.50;94.90;;;;;;6212523;23;20158;-75
2022/12/05 09:16:45;;;;;;;11.27;6.70;;;7.50;95.10;;;;;;6211138;23;20218;-77
2022/12/05 09:19:16;;;;;;;9.97;5.27;;;7.60;95.10;;;;;;6212812;23;20209;-75
2022/12/05 09:21:45;;;;;;;9.43;5.23;;;7.60;95.10;;;;;;6214529;23;20523;-79
2022/12/05 09:24:14;;;;;;;10.90;4.87;;;7.70;95.20;;;;;;6208590;23;20282;-77
2022/12/05 09:26:44;;;;;;;9.97;5.20;;;7.70;95.30;;;;;;6211109;23;20203;-76
2022/12/05 09:29:14;;;;;;;10.17;5.93;;;7.80;95.30;;;;;;6211656;23;20178;-75
2022/12/05 09:31:47;;;;;;;10.93;5.93;;;7.80;95.30;;;;;;6214773;23;20158;-77
2022/12/05 09:34:16;;;;;;;12.90;6.23;;;7.90;95.20;;;;;;6211366;23;20218;-75
2022/12/05 09:36:48;;;;;;;11.40;6.30;;;7.90;95.20;;;;;;6214326;23;20159;-75
2022/12/05 09:39:17;;;;;;;10.37;6.37;;;7.90;95.20;;;;;;6208123;23;20487;-77
2022/12/05 09:42:12;;;;;;;10.43;5.83;;;7.90;95.00;;;;;;6208998;23;20905;-77
2022/12/05 09:45:13;;;;;;;8.50;5.30;;;8.00;95.10;;;;;;6213299;23;20232;-77
2022/12/05 09:47:49;;;;;;;11.67;6.27;;;8.00;95.00;;;;;;6213357;23;20536;-76
2022/12/05 09:50:22;;;;;;;11.93;6.37;;;8.10;95.10;;;;;;6213704;23;20166;-75
2022/12/05 09:53:07;;;;;;;13.03;5.90;;;8.10;95.10;;;;;;6212583;23;20164;-77
2022/12/05 09:55:44;;;;;;;10.70;5.63;;;8.10;95.10;;;;;;6212416;23;20266;-76
2022/12/05 09:58:27;;;;;;;11.10;5.93;;;8.10;95.10;;;;;;6212025;23;20162;-75
2022/12/05 10:01:45;;;;;;;14.03;6.87;;;8.20;95.10;;;;;;6211799;23;20593;-77
2022/12/05 10:04:27;;;;;;;11.07;6.43;;;8.20;95.10;;;;;;6133054;23;20209;-75
2022/12/05 10:07:03;;;;;;;11.67;6.27;;;8.40;95.20;;;;;;6209243;23;20156;-76
2022/12/05 10:09:46;;;;;;;10.80;6.67;;;8.50;95.20;;;;;;6212868;23;20539;-74
2022/12/05 10:12:25;;;;;;;10.63;6.20;;;8.50;95.00;;;;;;6213452;23;20156;-79
2022/12/05 10:15:01;;;;;;;11.17;5.70;;;8.60;94.80;;;;;;6208466;23;20163;-79
2022/12/05 10:17:34;;;;;;;12.57;7.20;;;8.60;94.70;;;;;;6208853;23;20167;-78
2022/12/05 10:20:11;;;;;;;10.33;6.40;;;8.60;94.60;;;;;;6208020;23;20501;-78
2022/12/05 10:22:46;;;;;;;11.33;6.77;;;8.70;94.60;;;;;;6207393;23;20170;-79
2022/12/05 10:25:19;;;;;;;11.10;6.33;;;8.70;94.50;;;;;;6213266;23;20199;-78
2022/12/05 10:27:51;;;;;;;12.53;6.80;;;8.70;94.30;;;;;;6210911;23;20516;-79
2022/12/05 10:30:21;;;;;;;15.67;6.60;;;8.80;94.40;;;;;;6211969;23;20163;-77
2022/12/05 10:32:53;;;;;;;12.70;6.90;;;8.80;94.30;;;;;;6210015;23;20534;-78
2022/12/05 10:35:23;;;;;;;13.43;6.47;;;8.90;94.40;;;;;;6212827;23;20155;-78
2022/12/05 10:37:53;;;;;;;11.60;6.37;;;8.90;94.40;;;;;;6212604;23;20548;-79
2022/12/05 10:40:22;;;;;;;11.83;6.20;;;9.00;94.30;;;;;;6211211;23;20182;-80
2022/12/05 10:42:50;;;;;;;12.65;7.35;;;9.00;94.20;;;;;;6207647;23;20383;-78
2022/12/05 10:45:21;;;;;;;12.57;7.03;;;9.00;94.20;;;;;;6211668;23;20191;-77
2022/12/05 10:47:55;;;;;;;10.67;5.40;;;9.10;94.20;;;;;;6206650;23;20167;-79
2022/12/05 10:50:28;;;;;;;10.63;6.03;;;9.10;94.20;;;;;;6212110;23;20229;-79
2022/12/05 10:52:57;;;;;;;14.90;6.47;;;9.10;94.10;;;;;;6214251;23;20605;-80
2022/12/05 10:55:30;;;;;;;10.40;6.83;;;9.10;93.90;;;;;;6211135;23;20171;-81
2022/12/05 10:58:13;;;;;;;13.87;6.63;;;9.10;94.30;;;;;;6214449;23;20159;-81
2022/12/05 11:00:48;;;;;;;12.33;6.77;;;9.00;93.90;;;;;;6213395;23;20238;-80
2022/12/05 11:03:27;;;;;;;14.33;6.67;;;9.00;93.90;;;;;;6214469;23;20704;-80
2022/12/05 11:05:58;;;;;;;12.80;7.10;;;9.00;93.90;;;;;;6210492;23;20159;-78
2022/12/05 11:08:29;;;;;;;12.57;6.73;;;9.00;94.00;;;;;;6210598;23;20155;-79
2022/12/05 11:11:21;;;;;;;14.07;6.80;;;9.00;94.00;;;;;;6206585;23;20554;-79
2022/12/05 11:13:54;;;;;;;14.73;7.37;;;9.00;94.00;;;;;;6211470;23;20171;-80
2022/12/05 11:16:25;;;;;;;14.77;6.73;;;9.00;94.10;;;;;;6213243;23;20217;-80
2022/12/05 11:18:55;;;;;;;9.50;6.00;;;8.90;94.10;;;;;;6211253;23;20489;-80
2022/12/05 11:21:26;;;;;;;13.40;6.50;;;8.90;94.10;;;;;;6206410;23;20837;-80
2022/12/05 11:24:20;;;;;;;13.77;6.90;;;9.00;94.20;;;;;;6210133;23;20176;-81
2022/12/05 11:26:56;;;;;;;12.23;6.37;;;9.00;94.20;;;;;;6208870;23;20219;-80
2022/12/05 11:29:35;;;;;;;11.97;6.63;;;8.90;94.20;;;;;;6210632;23;20155;-79
2022/12/05 11:32:05;;;;;;;11.43;6.27;;;8.90;94.40;;;;;;6211231;23;20248;-79
2022/12/05 11:34:41;;;;;;;12.73;7.17;;;8.90;94.40;;;;;;6209847;23;20181;-80
2022/12/05 11:37:14;;;;;;;13.40;6.83;;;8.90;94.50;;;;;;6208806;23;20213;-79
2022/12/05 11:39:42;;;;;;;13.60;6.07;;;8.90;94.50;;;;;;6211442;23;20160;-80
2022/12/05 11:42:27;;;;;;;10.93;6.23;;;8.80;94.60;;;;;;6214411;23;20175;-81
2022/12/05 11:45:17;;;;;;;13.30;6.23;;;8.80;94.60;;;;;;6211134;23;20187;-79
2022/12/05 11:48:14;;;;;;;12.43;6.13;;;8.80;94.70;;;;;;6211011;23;20159;-79
2022/12/05 11:50:52;;;;;;;14.37;7.47;;;8.80;94.70;;;;;;6169763;23;20690;-81
2022/12/05 11:53:51;;;;;;;12.40;7.37;;;8.80;94.70;;;;;;6206049;23;20163;-81
2022/12/05 11:56:35;;;;;;;12.27;6.28;;;8.80;94.70;;;;;;6212886;23;20742;-80
2022/12/05 11:59:29;;;;;;;11.87;6.70;;;8.80;94.70;;;;;;6209654;23;20561;-78
2022/12/05 12:02:08;;;;;;;13.53;6.43;;;8.70;94.80;;;;;;6212332;23;20495;-81
2022/12/05 12:04:50;;;;;;;11.17;6.13;;;8.70;94.70;;;;;;6209849;23;20180;-81
2022/12/05 12:07:39;;;;;;;11.13;6.40;;;8.70;94.80;;;;;;6211389;23;20163;-80
2022/12/05 12:10:19;;;;;;;10.87;6.00;;;8.70;94.80;;;;;;6208245;23;20214;-80
2022/12/05 12:12:59;;;;;;;13.27;6.93;;;8.60;94.80;;;;;;6211512;23;20159;-81
2022/12/05 12:15:41;;;;;;;11.77;6.07;;;8.60;94.80;;;;;;6210071;23;20209;-80
2022/12/05 12:18:22;;;;;;;13.90;7.03;;;8.60;94.80;;;;;;6208022;23;20696;-80
2022/12/05 12:21:00;;;;;;;11.27;5.80;;;8.60;94.80;;;;;;6208728;23;20354;-80
2022/12/05 12:23:42;;;;;;;11.47;6.53;;;8.60;95.00;;;;;;6207573;23;20572;-80
2022/12/05 12:26:14;;;;;;;10.83;5.93;;;8.50;95.00;;;;;;6208881;23;20203;-79
2022/12/05 12:28:49;;;;;;;10.30;5.87;;;8.60;95.10;;;;;;6213007;23;20170;-80
2022/12/05 12:31:39;;;;;;;13.57;6.10;;;8.60;95.10;;;;;;6214296;23;20225;-79
2022/12/05 12:34:29;;;;;;;11.10;6.17;;;8.60;95.10;;;;;;6211154;23;20195;-79
2022/12/05 12:37:04;;;;;;;13.30;7.20;;;8.60;95.10;;;;;;6211073;23;20387;-79
2022/12/05 12:39:45;;;;;;;11.57;6.03;;;8.60;95.20;;;;;;6210278;23;20557;-80
2022/12/05 12:42:21;;;;;;;9.97;6.00;;;8.60;95.20;;;;;;6211007;23;20163;-80
2022/12/05 12:49:33;;;;;;;12.47;6.07;;;8.50;95.30;;;;;;6206935;23;20198;-76
2022/12/05 12:52:12;;;;;;;10.17;6.13;;;8.50;95.40;;;;;;6208757;23;20179;-76
2022/12/05 12:54:57;;;;;;;11.17;6.47;;;8.40;95.40;;;;;;6204504;23;20185;-75
2022/12/05 12:57:50;;;;;;;10.90;6.23;;;8.50;95.40;;;;;;6208587;23;20190;-79
2022/12/05 13:00:30;;;;;;;14.93;6.70;;;8.50;95.40;;;;;;6209022;23;20589;-79
2022/12/05 13:03:21;;;;;;;17.60;7.17;;;8.60;95.40;;;;;;6210878;23;20167;-78
2022/12/05 13:05:53;;;;;;;12.63;7.13;;;8.60;95.40;;;;;;6208525;23;20179;-79
2022/12/05 13:08:27;;;;;;;13.17;6.83;;;8.60;95.40;;;;;;6212188;23;20155;-79
2022/12/05 13:11:00;;;;;;;13.27;7.50;;;8.60;95.50;;;;;;6212249;23;20159;-78
2022/12/05 13:13:35;;;;;;;10.27;6.07;;;8.60;95.40;;;;;;6209113;23;20664;-79
2022/12/05 13:16:09;;;;;;;12.67;6.70;;;8.60;95.40;;;;;;6210337;23;20162;-78
2022/12/05 13:18:37;;;;;;;14.17;7.43;;;8.70;95.40;;;;;;6213391;23;20178;-78
2022/12/05 13:21:22;;;;;;;10.73;6.00;;;8.70;95.40;;;;;;6210659;23;20225;-79
2022/12/05 13:24:12;;;;;;;10.93;5.70;;;8.70;95.40;;;;;;6212187;23;20166;-81
2022/12/05 13:26:46;;;;;;;10.10;5.23;;;8.70;95.40;;;;;;6212686;23;20199;-78
2022/12/05 13:29:50;;;;;;;12.10;6.20;;;8.70;95.30;;;;;;6212086;23;20182;-79
2022/12/05 13:32:29;;;;;;;9.70;5.77;;;8.70;95.30;;;;;;6213049;23;20159;-78
2022/12/05 13:35:00;;;;;;;10.27;5.83;;;8.70;95.30;;;;;;6212083;23;20163;-79